createdAt,value
2022-09-28T00:02:11.728Z,11.40
2022-09-28T00:04:42.803Z,11.60
2022-09-28T00:07:14.566Z,11.70
2022-09-28T00:09:45.317Z,11.70
2022-09-28T00:12:16.135Z,11.70
2022-09-28T00:14:49.571Z,11.70
2022-09-28T00:17:24.253Z,11.70
2022-09-28T00:19:55.187Z,11.60
2022-09-28T00:22:25.754Z,11.70
2022-09-28T00:25:02.957Z,11.60
2022-09-28T00:27:37.481Z,11.70
2022-09-28T00:30:11.346Z,11.90
2022-09-28T00:32:45.824Z,12.00
2022-09-28T00:35:20.995Z,12.20
2022-09-28T00:37:57.083Z,12.40
2022-09-28T00:40:27.891Z,12.70
2022-09-28T00:42:59.714Z,12.80
2022-09-28T00:45:31.170Z,13.00
2022-09-28T00:48:02.707Z,13.00
2022-09-28T00:50:38.824Z,13.20
2022-09-28T00:53:28.550Z,13.50
2022-09-28T00:56:03.135Z,13.60
2022-09-28T00:58:37.412Z,13.60
2022-09-28T01:01:10.010Z,13.70
2022-09-28T01:03:47.594Z,13.80
2022-09-28T01:06:32.975Z,13.80
2022-09-28T01:09:10.335Z,13.90
2022-09-28T01:11:44.243Z,14.10
2022-09-28T01:14:17.920Z,14.20
2022-09-28T01:17:02.917Z,14.20
2022-09-28T01:20:36.155Z,14.40
2022-09-28T01:23:25.018Z,14.40
2022-09-28T01:25:58.148Z,14.30
2022-09-28T01:28:31.517Z,14.30
2022-09-28T01:31:17.432Z,14.30
2022-09-28T01:34:03.685Z,14.20
2022-09-28T01:37:02.766Z,14.20
2022-09-28T01:39:54.592Z,14.20
2022-09-28T01:42:33.418Z,14.10
2022-09-28T01:45:17.981Z,14.10
2022-09-28T01:47:50.299Z,14.10
2022-09-28T01:50:24.834Z,14.10
2022-09-28T01:53:14.051Z,14.30
2022-09-28T01:55:59.032Z,14.30
2022-09-28T01:58:42.329Z,14.40
2022-09-28T02:01:31.897Z,14.60
2022-09-28T02:04:28.805Z,14.70
2022-09-28T02:07:09.540Z,14.90
2022-09-28T02:09:50.559Z,15.00
2022-09-28T02:12:54.213Z,15.10
2022-09-28T02:15:34.170Z,15.40
2022-09-28T02:18:04.961Z,15.50
2022-09-28T02:20:40.022Z,15.70
2022-09-28T02:23:18.811Z,15.80
2022-09-28T02:25:56.324Z,15.90
2022-09-28T02:28:28.587Z,15.80
2022-09-28T02:31:00.113Z,15.70
2022-09-28T02:33:41.867Z,15.60
2022-09-28T02:36:17.041Z,15.50
2022-09-28T02:38:47.773Z,15.40
2022-09-28T02:42:18.435Z,15.30
2022-09-28T02:45:15.961Z,15.30
2022-09-28T02:48:13.730Z,15.30
2022-09-28T02:51:06.517Z,15.40
2022-09-28T02:53:50.921Z,15.50
2022-09-28T02:56:48.346Z,15.50
2022-09-28T02:59:40.895Z,15.70
2022-09-28T03:02:14.646Z,15.80
2022-09-28T03:05:01.188Z,15.90
2022-09-28T03:07:55.904Z,15.90
2022-09-28T03:10:36.597Z,16.00
2022-09-28T03:13:08.513Z,16.10
2022-09-28T03:15:39.706Z,16.10
2022-09-28T03:18:11.284Z,16.10
2022-09-28T03:20:43.192Z,16.00
2022-09-28T03:23:25.307Z,15.90
2022-09-28T03:25:59.905Z,15.90
2022-09-28T03:28:31.362Z,15.70
2022-09-28T03:31:02.154Z,15.70
2022-09-28T03:33:37.049Z,15.70
2022-09-28T03:36:08.072Z,15.70
2022-09-28T03:38:38.744Z,15.60
2022-09-28T03:41:11.070Z,15.50
2022-09-28T03:43:44.829Z,15.50
2022-09-28T03:46:17.930Z,15.40
2022-09-28T03:48:49.692Z,15.30
2022-09-28T03:51:21.434Z,15.20
2022-09-28T03:53:52.614Z,15.20
2022-09-28T03:56:23.239Z,15.20
2022-09-28T03:58:53.795Z,15.20
2022-09-28T04:01:25.630Z,15.20
2022-09-28T04:04:00.488Z,15.10
2022-09-28T04:06:31.208Z,15.00
2022-09-28T04:09:02.921Z,14.90
2022-09-28T04:11:42.958Z,14.90
2022-09-28T04:14:25.624Z,14.90
2022-09-28T04:16:57.180Z,14.90
2022-09-28T04:19:28.804Z,15.00
2022-09-28T04:21:59.872Z,15.00
2022-09-28T04:24:35.081Z,15.00
2022-09-28T04:27:23.583Z,15.00
2022-09-28T04:29:55.665Z,15.00
2022-09-28T04:32:26.185Z,15.10
2022-09-28T04:34:59.849Z,15.00
2022-09-28T04:37:34.843Z,15.10
2022-09-28T04:40:07.036Z,15.20
2022-09-28T04:42:38.474Z,15.40
2022-09-28T04:45:11.988Z,15.50
2022-09-28T04:47:42.868Z,15.60
2022-09-28T04:50:13.503Z,15.60
2022-09-28T04:52:46.805Z,15.50
2022-09-28T04:55:18.114Z,15.40
2022-09-28T04:57:48.941Z,15.40
2022-09-28T05:00:20.486Z,15.30
2022-09-28T05:02:50.669Z,15.30
2022-09-28T05:05:21.768Z,15.40
2022-09-28T05:07:52.508Z,15.50
2022-09-28T05:10:23.073Z,15.60
2022-09-28T05:12:54.386Z,15.60
2022-09-28T05:15:25.599Z,15.60
2022-09-28T05:17:56.476Z,15.50
2022-09-28T05:20:26.745Z,15.50
2022-09-28T05:22:57.394Z,15.40
2022-09-28T05:25:28.971Z,15.50
2022-09-28T05:28:00.580Z,15.50
2022-09-28T05:30:31.035Z,15.40
2022-09-28T05:33:01.875Z,15.40
2022-09-28T05:35:34.417Z,15.30
2022-09-28T05:38:08.602Z,15.40
2022-09-28T05:40:39.262Z,15.40
2022-09-28T05:43:10.858Z,15.30
2022-09-28T05:45:41.485Z,15.30
2022-09-28T05:48:12.258Z,15.20
2022-09-28T05:50:42.611Z,15.10
2022-09-28T05:53:14.183Z,15.10
2022-09-28T05:55:45.813Z,15.10
2022-09-28T05:58:16.494Z,15.00
2022-09-28T06:00:47.502Z,15.00
2022-09-28T06:03:19.199Z,15.00
2022-09-28T06:05:49.818Z,15.00
2022-09-28T06:08:20.515Z,15.00
2022-09-28T06:10:54.128Z,14.90
2022-09-28T06:13:25.089Z,15.00
2022-09-28T06:15:56.642Z,15.10
2022-09-28T06:18:27.281Z,15.00
2022-09-28T06:20:59.199Z,15.00
2022-09-28T06:23:29.344Z,15.00
2022-09-28T06:26:03.563Z,15.00
2022-09-28T06:28:34.167Z,15.00
2022-09-28T06:31:04.860Z,15.00
2022-09-28T06:33:36.298Z,15.00
2022-09-28T06:36:07.758Z,14.90
2022-09-28T06:38:39.861Z,14.80
2022-09-28T06:41:12.049Z,14.80
2022-09-28T06:43:42.915Z,14.70
2022-09-28T06:46:14.831Z,14.60
2022-09-28T06:48:47.074Z,14.50
2022-09-28T06:51:18.835Z,14.40
2022-09-28T06:53:49.541Z,14.40
2022-09-28T06:56:21.774Z,14.30
2022-09-28T06:58:52.424Z,14.30
2022-09-28T07:01:24.347Z,14.30
2022-09-28T07:03:55.889Z,14.20
2022-09-28T07:06:28.925Z,14.20
2022-09-28T07:09:13.828Z,14.20
2022-09-28T07:11:50.051Z,14.20
2022-09-28T07:14:47.494Z,14.10
2022-09-28T07:17:58.413Z,14.10
2022-09-28T07:20:42.513Z,14.10
2022-09-28T07:23:19.630Z,14.00
2022-09-28T07:25:52.509Z,13.90
2022-09-28T07:28:24.058Z,13.90
2022-09-28T07:30:54.918Z,13.90
2022-09-28T07:33:29.836Z,13.80
2022-09-28T07:36:08.106Z,13.70
2022-09-28T07:38:40.399Z,13.60
2022-09-28T07:41:15.921Z,13.60
2022-09-28T07:43:46.798Z,13.50
2022-09-28T07:46:18.888Z,13.50
2022-09-28T07:48:52.730Z,13.40
2022-09-28T07:51:25.759Z,13.40
2022-09-28T07:54:01.117Z,13.30
2022-09-28T07:56:33.297Z,13.30
2022-09-28T07:59:03.859Z,13.20
2022-09-28T08:01:39.101Z,13.10
2022-09-28T08:04:11.057Z,13.00
2022-09-28T08:06:42.120Z,13.00
2022-09-28T08:09:14.035Z,12.90
2022-09-28T08:11:46.627Z,12.90
2022-09-28T08:14:16.866Z,12.90
2022-09-28T08:16:49.544Z,12.80
2022-09-28T08:19:22.269Z,12.80
2022-09-28T08:21:53.214Z,12.70
2022-09-28T08:24:31.447Z,12.70
2022-09-28T08:27:02.617Z,12.70
2022-09-28T08:29:33.964Z,12.60
2022-09-28T08:32:05.135Z,12.50
2022-09-28T08:34:35.686Z,12.40
2022-09-28T08:37:07.394Z,12.30
2022-09-28T08:39:39.142Z,12.20
2022-09-28T08:42:57.205Z,12.20
2022-09-28T08:45:35.969Z,12.20
2022-09-28T08:48:56.897Z,12.20
2022-09-28T08:52:25.384Z,12.30
2022-09-28T08:55:16.377Z,12.30
2022-09-28T08:57:58.492Z,12.20
2022-09-28T09:00:42.792Z,12.20
2022-09-28T09:03:17.511Z,12.20
2022-09-28T09:06:22.500Z,12.20
2022-09-28T09:09:14.055Z,12.20
2022-09-28T09:12:05.789Z,12.20
2022-09-28T09:15:07.734Z,12.20
2022-09-28T09:18:16.628Z,12.20
2022-09-28T09:21:04.369Z,12.20
2022-09-28T09:23:58.668Z,12.10
2022-09-28T09:26:42.318Z,12.10
2022-09-28T09:29:50.567Z,12.00
2022-09-28T09:33:14.882Z,11.90
2022-09-28T09:35:53.964Z,11.90
2022-09-28T09:39:00.563Z,11.90
2022-09-28T09:41:56.610Z,11.80
2022-09-28T09:44:41.316Z,11.80
2022-09-28T09:47:40.601Z,11.80
2022-09-28T09:50:21.760Z,11.70
2022-09-28T09:53:07.101Z,11.70
2022-09-28T09:55:48.501Z,11.60
2022-09-28T09:58:28.057Z,11.60
2022-09-28T10:01:06.977Z,11.50
2022-09-28T10:03:42.231Z,11.40
2022-09-28T10:06:20.916Z,11.40
2022-09-28T10:09:16.086Z,11.30
2022-09-28T10:11:52.539Z,11.20
2022-09-28T10:14:28.010Z,11.20
2022-09-28T10:17:00.868Z,11.20
2022-09-28T10:19:40.299Z,11.20
2022-09-28T10:22:17.295Z,11.20
2022-09-28T10:24:51.463Z,11.20
2022-09-28T10:27:45.329Z,11.20
2022-09-28T10:30:27.795Z,11.30
2022-09-28T10:33:03.427Z,11.30
2022-09-28T10:35:45.715Z,11.30
2022-09-28T10:38:37.311Z,11.40
2022-09-28T10:41:18.775Z,11.40
2022-09-28T10:44:08.794Z,11.40
2022-09-28T10:46:43.248Z,11.40
2022-09-28T10:49:16.813Z,11.40
2022-09-28T10:51:53.740Z,11.40
2022-09-28T10:54:25.086Z,11.50
2022-09-28T10:56:58.346Z,11.40
2022-09-28T10:59:44.298Z,11.50
2022-09-28T11:02:36.274Z,11.50
2022-09-28T11:05:22.516Z,11.50
2022-09-28T11:07:54.885Z,11.40
2022-09-28T11:10:31.475Z,11.50
2022-09-28T11:13:03.368Z,11.50
2022-09-28T11:15:38.000Z,11.50
2022-09-28T11:18:38.390Z,11.50
2022-09-28T11:21:25.356Z,11.40
2022-09-28T11:24:21.022Z,11.40
2022-09-28T11:26:55.895Z,11.30
2022-09-28T11:29:26.706Z,11.40
2022-09-28T11:32:06.333Z,11.40
2022-09-28T11:34:59.304Z,11.40
2022-09-28T11:37:46.912Z,11.40
2022-09-28T11:40:29.674Z,11.40
2022-09-28T11:43:14.491Z,11.40
2022-09-28T11:45:50.498Z,11.40
2022-09-28T11:48:50.222Z,11.40
2022-09-28T11:51:39.009Z,11.40
2022-09-28T11:54:45.666Z,11.30
2022-09-28T11:57:26.863Z,11.30
2022-09-28T12:00:05.445Z,11.20
2022-09-28T12:02:42.191Z,11.20
2022-09-28T12:05:20.932Z,11.20
2022-09-28T12:08:24.100Z,11.20
2022-09-28T12:11:04.490Z,11.30
2022-09-28T12:13:50.082Z,11.20
2022-09-28T12:16:53.509Z,11.20
2022-09-28T12:19:42.525Z,11.20
2022-09-28T12:22:26.577Z,11.20
2022-09-28T12:25:00.023Z,11.20
2022-09-28T12:27:58.240Z,11.10
2022-09-28T12:30:31.000Z,11.20
2022-09-28T12:33:14.208Z,11.20
2022-09-28T12:36:09.279Z,11.20
2022-09-28T12:39:08.480Z,11.20
2022-09-28T12:42:07.743Z,11.20
2022-09-28T12:45:08.406Z,11.20
2022-09-28T12:48:04.934Z,11.20
2022-09-28T12:51:05.364Z,11.20
2022-09-28T12:53:48.939Z,11.10
2022-09-28T12:56:54.314Z,11.10
2022-09-28T12:59:41.073Z,11.10
2022-09-28T13:02:33.322Z,11.10
2022-09-28T13:05:37.613Z,11.10
2022-09-28T13:08:34.649Z,11.10
2022-09-28T13:11:18.268Z,11.10
2022-09-28T13:14:04.819Z,11.00
2022-09-28T13:17:00.413Z,11.00
2022-09-28T13:20:16.032Z,11.10
2022-09-28T13:23:04.836Z,11.00
2022-09-28T13:25:38.913Z,11.00
2022-09-28T13:28:09.667Z,11.00
2022-09-28T13:30:42.650Z,11.10
2022-09-28T13:33:21.095Z,11.10
2022-09-28T13:35:51.962Z,11.10
2022-09-28T13:38:45.497Z,11.10
2022-09-28T13:41:19.801Z,11.10
2022-09-28T13:44:18.289Z,11.10
2022-09-28T13:47:05.923Z,11.10
2022-09-28T13:50:20.158Z,11.10
2022-09-28T13:53:39.602Z,11.10
2022-09-28T13:56:18.506Z,11.00
2022-09-28T13:59:12.546Z,11.00
2022-09-28T14:02:05.692Z,11.00
2022-09-28T14:04:59.525Z,10.90
2022-09-28T14:07:38.670Z,10.90
2022-09-28T14:10:46.953Z,11.00
2022-09-28T14:13:45.483Z,10.90
2022-09-28T14:16:23.942Z,10.90
2022-09-28T14:19:05.903Z,10.90
2022-09-28T14:22:29.876Z,10.90
2022-09-28T14:25:17.113Z,10.90
2022-09-28T14:28:04.169Z,10.90
2022-09-28T14:30:50.765Z,10.90
2022-09-28T14:33:25.315Z,10.90
2022-09-28T14:36:11.224Z,10.90
2022-09-28T14:39:12.147Z,10.90
2022-09-28T14:41:45.852Z,10.90
2022-09-28T14:44:20.360Z,10.90
2022-09-28T14:46:51.084Z,10.90
2022-09-28T14:49:21.453Z,10.90
2022-09-28T14:52:00.235Z,10.90
2022-09-28T14:55:00.543Z,11.00
2022-09-28T14:57:33.456Z,11.00
2022-09-28T15:00:18.185Z,11.00
2022-09-28T15:02:54.176Z,11.00
2022-09-28T15:05:49.501Z,11.10
2022-09-28T15:08:29.792Z,11.10
2022-09-28T15:11:03.645Z,11.10
2022-09-28T15:13:34.009Z,11.20
2022-09-28T15:16:15.289Z,11.20
2022-09-28T15:18:55.893Z,11.20
2022-09-28T15:21:33.987Z,11.20
2022-09-28T15:24:06.438Z,11.20
2022-09-28T15:26:37.810Z,11.20
2022-09-28T15:29:21.241Z,11.20
2022-09-28T15:31:54.488Z,11.20
2022-09-28T15:34:53.723Z,11.10
2022-09-28T15:37:40.534Z,11.10
2022-09-28T15:40:19.034Z,11.10
2022-09-28T15:42:49.547Z,11.10
2022-09-28T15:45:27.001Z,11.10
2022-09-28T15:48:18.720Z,11.20
2022-09-28T15:51:14.431Z,11.20
2022-09-28T15:54:01.068Z,11.20
2022-09-28T15:56:34.467Z,11.20
2022-09-28T15:59:28.390Z,11.20
2022-09-28T16:02:26.617Z,11.20
2022-09-28T16:05:01.862Z,11.10
2022-09-28T16:07:45.995Z,11.10
2022-09-28T16:10:17.124Z,11.10
2022-09-28T16:12:57.796Z,11.10
2022-09-28T16:15:28.168Z,11.10
2022-09-28T16:18:02.883Z,11.10
2022-09-28T16:20:34.470Z,11.10
2022-09-28T16:23:21.442Z,11.10
2022-09-28T16:26:02.540Z,11.10
2022-09-28T16:28:36.729Z,11.10
2022-09-28T16:31:35.362Z,11.10
2022-09-28T16:34:22.069Z,11.10
2022-09-28T16:36:53.211Z,11.10
2022-09-28T16:39:23.703Z,11.00
2022-09-28T16:42:01.165Z,11.00
2022-09-28T16:44:33.910Z,11.00
2022-09-28T16:47:04.473Z,11.00
2022-09-28T16:49:35.060Z,11.00
2022-09-28T16:52:06.649Z,10.90
2022-09-28T16:54:55.280Z,10.90
2022-09-28T16:57:25.635Z,10.80
2022-09-28T16:59:55.884Z,10.80
2022-09-28T17:02:46.249Z,10.80
2022-09-28T17:05:23.289Z,10.70
2022-09-28T17:08:04.181Z,10.70
2022-09-28T17:11:18.126Z,10.70
2022-09-28T17:13:49.757Z,10.70
2022-09-28T17:16:37.039Z,10.70
2022-09-28T17:19:25.963Z,10.70
2022-09-28T17:21:57.550Z,10.60
2022-09-28T17:24:28.219Z,10.70
2022-09-28T17:26:58.796Z,10.60
2022-09-28T17:29:29.589Z,10.60
2022-09-28T17:31:59.828Z,10.60
2022-09-28T17:34:30.440Z,10.60
2022-09-28T17:37:00.681Z,10.60
2022-09-28T17:39:30.840Z,10.60
2022-09-28T17:42:01.072Z,10.60
2022-09-28T17:44:31.367Z,10.60
2022-09-28T17:47:03.655Z,10.50
2022-09-28T17:49:33.935Z,10.60
2022-09-28T17:52:06.185Z,10.60
2022-09-28T17:54:39.195Z,10.60
2022-09-28T17:57:11.076Z,10.50
2022-09-28T17:59:41.419Z,10.50
2022-09-28T18:02:14.861Z,10.50
2022-09-28T18:04:52.172Z,10.50
2022-09-28T18:07:22.947Z,10.50
2022-09-28T18:09:58.588Z,10.40
2022-09-28T18:12:29.265Z,10.40
2022-09-28T18:14:59.610Z,10.30
2022-09-28T18:17:30.297Z,10.20
2022-09-28T18:20:00.476Z,10.20
2022-09-28T18:22:30.771Z,10.20
2022-09-28T18:25:01.501Z,10.20
2022-09-28T18:27:32.632Z,10.20
2022-09-28T18:30:03.173Z,10.30
2022-09-28T18:32:35.521Z,10.30
2022-09-28T18:35:12.872Z,10.30
2022-09-28T18:37:44.158Z,10.20
2022-09-28T18:40:15.633Z,10.30
2022-09-28T18:42:46.077Z,10.30
2022-09-28T18:45:18.910Z,10.30
2022-09-28T18:47:49.397Z,10.30
2022-09-28T18:50:19.932Z,10.30
2022-09-28T18:52:50.787Z,10.30
2022-09-28T18:55:21.594Z,10.30
2022-09-28T18:57:53.142Z,10.30
2022-09-28T19:00:23.501Z,10.30
2022-09-28T19:02:54.334Z,10.30
2022-09-28T19:05:25.081Z,10.40
2022-09-28T19:07:56.855Z,10.40
2022-09-28T19:10:27.358Z,10.40
2022-09-28T19:12:57.698Z,10.40
2022-09-28T19:15:28.027Z,10.40
2022-09-28T19:17:58.817Z,10.40
2022-09-28T19:20:28.976Z,10.40
2022-09-28T19:22:59.471Z,10.30
2022-09-28T19:25:29.939Z,10.30
2022-09-28T19:28:00.587Z,10.30
2022-09-28T19:30:30.830Z,10.30
2022-09-28T19:33:03.944Z,10.40
2022-09-28T19:35:34.117Z,10.40
2022-09-28T19:38:04.477Z,10.40
2022-09-28T19:40:34.672Z,10.40
2022-09-28T19:43:06.095Z,10.40
2022-09-28T19:45:38.334Z,10.40
2022-09-28T19:48:08.570Z,10.40
2022-09-28T19:50:38.819Z,10.40
2022-09-28T19:53:09.562Z,10.50
2022-09-28T19:55:40.648Z,10.50
2022-09-28T19:58:11.476Z,10.50
2022-09-28T20:00:41.693Z,10.60
2022-09-28T20:03:13.351Z,10.60
2022-09-28T20:05:44.157Z,10.70
2022-09-28T20:08:17.058Z,10.70
2022-09-28T20:10:56.203Z,10.70
2022-09-28T20:13:38.316Z,10.80
2022-09-28T20:16:11.524Z,10.80
2022-09-28T20:18:51.920Z,10.80
2022-09-28T20:21:26.514Z,10.80
2022-09-28T20:23:58.274Z,10.80
2022-09-28T20:26:30.208Z,10.90
2022-09-28T20:29:00.490Z,10.90
2022-09-28T20:31:31.051Z,10.90
2022-09-28T20:34:01.898Z,11.00
2022-09-28T20:36:34.825Z,11.10
2022-09-28T20:39:06.468Z,11.10
2022-09-28T20:41:37.213Z,11.10
2022-09-28T20:44:09.308Z,11.20
2022-09-28T20:46:40.015Z,11.20
2022-09-28T20:49:10.842Z,11.30
2022-09-28T20:51:41.500Z,11.30
2022-09-28T20:54:11.801Z,11.20
2022-09-28T20:56:42.437Z,11.30
2022-09-28T20:59:16.041Z,11.30
2022-09-28T21:01:46.439Z,11.40
2022-09-28T21:04:17.503Z,11.40
2022-09-28T21:06:47.886Z,11.50
2022-09-28T21:09:18.623Z,11.60
2022-09-28T21:11:49.791Z,11.60
2022-09-28T21:14:20.905Z,11.70
2022-09-28T21:16:51.485Z,11.80
2022-09-28T21:19:24.232Z,11.90
2022-09-28T21:21:54.780Z,12.00
2022-09-28T21:24:25.340Z,12.10
2022-09-28T21:26:57.683Z,12.10
2022-09-28T21:29:28.086Z,12.20
2022-09-28T21:31:58.542Z,12.20
2022-09-28T21:34:28.926Z,12.20
2022-09-28T21:36:59.099Z,12.20
2022-09-28T21:39:29.604Z,12.20
2022-09-28T21:42:00.285Z,12.20
2022-09-28T21:44:30.984Z,12.20
2022-09-28T21:47:01.267Z,12.20
2022-09-28T21:49:31.551Z,12.20
2022-09-28T21:52:02.194Z,12.20
2022-09-28T21:54:32.485Z,12.20
2022-09-28T21:57:03.032Z,12.20
2022-09-28T21:59:33.444Z,12.30
2022-09-28T22:02:04.018Z,12.40
2022-09-28T22:04:34.335Z,12.40
2022-09-28T22:07:04.677Z,12.50
2022-09-28T22:09:35.839Z,12.60
2022-09-28T22:12:06.093Z,12.60
2022-09-28T22:14:36.393Z,12.70
2022-09-28T22:17:06.571Z,12.90
2022-09-28T22:19:37.034Z,13.00
2022-09-28T22:22:07.333Z,13.10
2022-09-28T22:24:37.607Z,13.30
2022-09-28T22:27:08.250Z,13.40
2022-09-28T22:29:39.317Z,13.40
2022-09-28T22:32:09.771Z,13.60
2022-09-28T22:34:40.447Z,13.70
2022-09-28T22:37:10.709Z,13.70
2022-09-28T22:39:42.793Z,13.60
2022-09-28T22:42:13.057Z,13.50
2022-09-28T22:44:44.428Z,13.30
2022-09-28T22:47:14.636Z,13.20
2022-09-28T22:49:45.016Z,13.10
2022-09-28T22:52:15.285Z,13.00
2022-09-28T22:54:45.546Z,13.20
2022-09-28T22:57:16.517Z,13.30
2022-09-28T22:59:46.854Z,13.40
2022-09-28T23:02:17.105Z,13.60
2022-09-28T23:04:47.676Z,13.80
2022-09-28T23:07:17.907Z,14.00
2022-09-28T23:09:48.208Z,14.10
2022-09-28T23:12:18.403Z,14.20
2022-09-28T23:14:49.257Z,14.30
2022-09-28T23:17:19.446Z,14.50
2022-09-28T23:19:50.723Z,14.60
2022-09-28T23:22:21.360Z,14.70
2022-09-28T23:24:52.026Z,14.80
2022-09-28T23:27:22.639Z,15.00
2022-09-28T23:29:56.197Z,15.00
2022-09-28T23:32:31.136Z,15.10
2022-09-28T23:35:02.200Z,15.20
2022-09-28T23:37:32.499Z,15.30
2022-09-28T23:40:04.942Z,15.30
2022-09-28T23:42:36.438Z,15.50
2022-09-28T23:45:07.352Z,15.60
2022-09-28T23:47:40.524Z,15.60
2022-09-28T23:50:11.798Z,15.60
2022-09-28T23:52:42.042Z,15.80
2022-09-28T23:55:13.703Z,16.00
2022-09-28T23:57:46.076Z,16.00
